Time;durP1;ratioP1;P1;durP2;ratioP2;P2;SDS_P1;SDS_P2;PMS_P1;PMS_P2;Temp;Humidity;BMP_temperature;BMP_pressure;BME280_temperature;BME280_humidity;BME280_pressure;Samples;Min_cycle;Max_cycle;Signal;HPM_P1;HPM_P2
2022/10/30 00:00:19;;;;;;;16.57;13.27;;;;;17.40;99266.00;;;;16559673;28;20233;-51
2022/10/30 00:08:24;;;;;;;18.87;14.03;;;;;17.30;99266.00;;;;16556112;28;20929;-50
2022/10/30 00:16:28;;;;;;;21.77;13.83;;;;;17.20;99268.00;;;;16546029;28;20226;-50
2022/10/30 00:24:30;;;;;;;22.27;13.00;;;;;17.00;99270.00;;;;16560279;28;20224;-51
2022/10/30 00:32:34;;;;;;;20.50;13.10;;;;;17.00;99262.00;;;;16556982;28;20302;-51
2022/10/30 00:40:37;;;;;;;17.33;12.40;;;;;16.90;99248.00;;;;16563011;28;20243;-50
2022/10/30 00:48:41;;;;;;;21.80;13.90;;;;;16.80;99258.00;;;;16551778;28;20309;-50
2022/10/30 00:56:44;;;;;;;23.23;12.70;;;;;16.90;99252.00;;;;16557799;28;20290;-51
2022/10/30 01:04:48;;;;;;;19.43;12.27;;;;;16.90;99254.00;;;;16546064;28;20323;-49
2022/10/30 01:12:52;;;;;;;20.27;12.90;;;;;17.00;99246.00;;;;16549628;28;20203;-51
2022/10/30 01:21:07;;;;;;;22.30;12.17;;;;;16.80;99257.00;;;;16555078;28;20243;-50
2022/10/30 01:29:25;;;;;;;15.00;11.60;;;;;16.90;99263.00;;;;16536290;28;20752;-50
2022/10/30 01:37:34;;;;;;;17.23;10.97;;;;;17.00;99263.00;;;;16546631;28;20231;-51
2022/10/30 01:45:51;;;;;;;13.57;10.83;;;;;16.90;99250.00;;;;16520816;28;20255;-50
2022/10/30 01:54:01;;;;;;;15.33;8.70;;;;;16.30;99246.00;;;;16519482;28;20211;-50
2022/10/30 02:02:04;;;;;;;12.37;8.03;;;;;16.00;99248.00;;;;16556061;28;20223;-50
2022/10/30 02:10:10;;;;;;;13.60;9.77;;;;;16.70;99237.00;;;;16543024;28;20227;-50
2022/10/30 02:18:13;;;;;;;13.87;10.50;;;;;16.70;99229.00;;;;16518176;28;20220;-51
2022/10/30 02:26:17;;;;;;;12.20;8.97;;;;;16.50;99223.00;;;;16519556;28;20219;-50
2022/10/30 02:34:19;;;;;;;14.70;8.80;;;;;16.10;99222.00;;;;16524357;28;20735;-50
2022/10/30 02:42:23;;;;;;;13.63;7.80;;;;;15.40;99228.00;;;;16533897;28;20631;-49
2022/10/30 02:50:28;;;;;;;12.27;8.97;;;;;16.00;99226.00;;;;16530194;28;20240;-50
2022/10/30 02:58:32;;;;;;;11.83;8.33;;;;;16.00;99224.00;;;;16523358;28;20726;-50
2022/10/30 03:06:34;;;;;;;13.63;7.90;;;;;16.80;99225.00;;;;16544714;28;20873;-50
2022/10/30 03:14:38;;;;;;;14.73;8.00;;;;;15.70;99227.00;;;;16529147;28;20204;-50
2022/10/30 03:22:40;;;;;;;19.27;10.27;;;;;16.40;99218.00;;;;16537281;28;20231;-50
2022/10/30 03:30:44;;;;;;;11.37;8.80;;;;;16.40;99224.00;;;;16534591;28;20346;-50
2022/10/30 03:38:47;;;;;;;16.93;10.60;;;;;16.60;99232.00;;;;16540020;28;20714;-51
2022/10/30 03:46:55;;;;;;;14.93;10.73;;;;;16.70;99234.00;;;;16531343;28;20232;-49
2022/10/30 03:55:05;;;;;;;14.30;9.17;;;;;16.20;99248.00;;;;16533748;28;20590;-51
2022/10/30 04:03:10;;;;;;;15.97;7.87;;;;;15.90;99256.00;;;;16542237;28;20271;-50
2022/10/30 04:11:18;;;;;;;17.87;8.27;;;;;15.60;99265.00;;;;16533644;28;20588;-50
2022/10/30 04:19:22;;;;;;;19.47;9.47;;;;;15.20;99258.00;;;;16551479;28;20708;-50
2022/10/30 04:27:24;;;;;;;11.70;8.03;;;;;15.90;99259.00;;;;16568737;28;20718;-50
2022/10/30 04:35:31;;;;;;;13.33;8.60;;;;;15.30;99259.00;;;;16564730;28;20640;-50
2022/10/30 04:43:34;;;;;;;9.97;6.83;;;;;15.10;99261.00;;;;16546224;28;20231;-50
2022/10/30 04:51:38;;;;;;;9.90;7.20;;;;;15.10;99264.00;;;;16546637;28;20224;-49
2022/10/30 04:59:42;;;;;;;19.00;11.07;;;;;15.60;99254.00;;;;16566017;28;20216;-50
2022/10/30 05:07:46;;;;;;;12.20;7.77;;;;;15.30;99244.00;;;;16565680;28;20228;-50
2022/10/30 05:15:49;;;;;;;11.33;9.07;;;;;15.50;99246.00;;;;16553158;28;20219;-50
2022/10/30 05:23:53;;;;;;;15.40;9.27;;;;;15.60;99248.00;;;;16570381;28;20219;-50
2022/10/30 05:31:55;;;;;;;15.93;8.90;;;;;15.40;99239.00;;;;16558923;28;20220;-50
2022/10/30 05:40:14;;;;;;;16.20;9.20;;;;;15.40;99239.00;;;;16564534;28;20253;-50
2022/10/30 05:48:17;;;;;;;16.13;9.97;;;;;15.30;99238.00;;;;16537245;28;20239;-50
2022/10/30 05:56:23;;;;;;;14.97;10.10;;;;;15.30;99240.00;;;;16539980;28;20311;-50
2022/10/30 06:04:26;;;;;;;13.70;9.60;;;;;15.10;99244.00;;;;16559689;28;20223;-49
2022/10/30 06:12:32;;;;;;;11.27;7.67;;;;;15.40;99247.00;;;;16547629;28;20223;-51
2022/10/30 06:20:49;;;;;;;9.93;8.27;;;;;15.10;99258.00;;;;16564976;28;20227;-50
2022/10/30 06:29:26;;;;;;;12.80;9.53;;;;;15.00;99252.00;;;;16504494;28;20621;-50
2022/10/30 06:37:29;;;;;;;13.77;10.03;;;;;14.70;99263.00;;;;16572344;28;20223;-51
2022/10/30 06:45:35;;;;;;;20.53;11.83;;;;;14.70;99263.00;;;;16580028;28;20272;-50
2022/10/30 06:53:37;;;;;;;17.23;9.47;;;;;15.10;99254.00;;;;16579312;28;20711;-50
2022/10/30 07:02:00;;;;;;;15.03;9.30;;;;;15.30;99251.00;;;;16574168;28;20716;-49
2022/10/30 07:10:10;;;;;;;12.80;8.63;;;;;15.60;99263.00;;;;16577388;28;20230;-50
2022/10/30 07:18:32;;;;;;;16.00;9.60;;;;;15.60;99259.00;;;;16565775;28;20216;-51
2022/10/30 07:26:38;;;;;;;15.97;8.93;;;;;15.70;99264.00;;;;16564284;28;21830;-50
2022/10/30 07:35:00;;;;;;;16.17;8.40;;;;;15.90;99273.00;;;;16556344;28;20237;-50
2022/10/30 07:43:12;;;;;;;11.60;9.10;;;;;16.30;99253.00;;;;16561086;28;20222;-50
2022/10/30 07:51:44;;;;;;;11.97;8.60;;;;;16.10;99260.00;;;;16495657;28;20223;-50
2022/10/30 07:59:49;;;;;;;16.43;8.63;;;;;16.30;99262.00;;;;16584203;28;20822;-51
2022/10/30 08:08:16;;;;;;;13.90;8.40;;;;;16.50;99267.00;;;;16569152;28;20326;-50
2022/10/30 08:16:18;;;;;;;11.27;7.80;;;;;16.70;99251.00;;;;16567283;28;20232;-50
2022/10/30 08:24:22;;;;;;;20.23;9.27;;;;;16.80;99263.00;;;;16576692;28;20376;-50
2022/10/30 08:32:28;;;;;;;11.20;8.87;;;;;17.10;99247.00;;;;16574839;28;20598;-50
2022/10/30 08:41:02;;;;;;;12.83;8.17;;;;;17.80;99255.00;;;;16561561;28;20766;-51
2022/10/30 08:49:07;;;;;;;9.10;7.43;;;;;18.40;99239.00;;;;16561921;28;20227;-51
2022/10/30 08:57:15;;;;;;;8.90;6.00;;;;;18.90;99239.00;;;;16593720;28;20223;-50
2022/10/30 09:05:18;;;;;;;10.23;6.87;;;;;19.50;99228.00;;;;16571491;28;20671;-50
2022/10/30 09:13:41;;;;;;;11.83;6.00;;;;;20.20;99220.00;;;;16559044;28;20203;-49
2022/10/30 09:21:44;;;;;;;13.67;6.70;;;;;19.90;99224.00;;;;16585347;28;20710;-50
2022/10/30 09:29:48;;;;;;;16.60;7.60;;;;;20.50;99231.00;;;;16570642;28;20314;-49
2022/10/30 09:38:05;;;;;;;9.27;6.23;;;;;20.80;99218.00;;;;16561870;28;20595;-50
2022/10/30 09:46:24;;;;;;;9.53;6.70;;;;;21.40;99219.00;;;;16545042;28;20253;-50
2022/10/30 09:54:37;;;;;;;8.80;6.20;;;;;21.80;99224.00;;;;16541790;28;20202;-50
2022/10/30 10:03:00;;;;;;;11.23;6.33;;;;;21.50;99226.00;;;;16548433;28;20226;-50
2022/10/30 10:11:14;;;;;;;9.67;6.67;;;;;22.00;99217.00;;;;16568677;28;20285;-50
2022/10/30 10:19:21;;;;;;;15.10;7.17;;;;;22.80;99214.00;;;;16537539;28;20227;-49
2022/10/30 10:27:31;;;;;;;13.00;7.93;;;;;23.50;99214.00;;;;16562740;28;20222;-50
2022/10/30 10:35:53;;;;;;;11.73;7.83;;;;;23.90;99210.00;;;;16561740;28;20216;-50
2022/10/30 10:44:17;;;;;;;10.23;6.20;;;;;24.40;99204.00;;;;16569906;28;20899;-51
2022/10/30 10:52:24;;;;;;;17.10;8.03;;;;;24.60;99191.00;;;;16570109;28;20262;-50
2022/10/30 11:00:27;;;;;;;10.47;6.67;;;;;25.60;99195.00;;;;16560307;28;20221;-50
2022/10/30 11:08:33;;;;;;;10.83;5.50;;;;;25.80;99189.00;;;;16556964;28;20229;-51
2022/10/30 11:16:42;;;;;;;10.70;5.90;;;;;25.80;99173.00;;;;16560489;28;20220;-50
2022/10/30 11:24:46;;;;;;;6.87;4.83;;;;;26.20;99173.00;;;;16562786;28;20292;-51
2022/10/30 11:32:49;;;;;;;11.80;5.30;;;;;27.00;99170.00;;;;16576631;28;20230;-51
2022/10/30 11:40:53;;;;;;;9.07;5.07;;;;;26.90;99171.00;;;;16583140;28;20259;-50
2022/10/30 11:48:56;;;;;;;7.37;5.03;;;;;26.90;99152.00;;;;16579655;28;20223;-50
2022/10/30 11:57:00;;;;;;;8.70;5.73;;;;;26.70;99160.00;;;;16578530;28;20251;-51
2022/10/30 12:05:02;;;;;;;9.63;7.30;;;;;26.70;99170.00;;;;16562273;28;20228;-50
2022/10/30 12:13:07;;;;;;;10.13;5.77;;;;;26.40;99155.00;;;;16540348;28;20262;-51
2022/10/30 12:21:10;;;;;;;17.10;6.03;;;;;26.50;99157.00;;;;16555121;28;20265;-51
2022/10/30 12:29:17;;;;;;;9.67;5.50;;;;;27.40;99151.00;;;;16564079;28;20238;-50
2022/10/30 12:37:22;;;;;;;8.50;4.70;;;;;27.40;99137.00;;;;16561320;28;20306;-50
2022/10/30 12:45:30;;;;;;;10.13;6.50;;;;;27.60;99130.00;;;;16530891;28;20834;-51
2022/10/30 12:53:40;;;;;;;8.83;5.57;;;;;27.60;99137.00;;;;16536660;28;20231;-50
2022/10/30 13:01:48;;;;;;;7.43;5.90;;;;;27.30;99131.00;;;;16537807;28;20224;-51
2022/10/30 13:10:01;;;;;;;7.47;5.20;;;;;27.70;99121.00;;;;16527179;28;20240;-51
2022/10/30 13:18:17;;;;;;;10.63;6.23;;;;;27.90;99114.00;;;;16527107;28;20576;-51
2022/10/30 13:26:38;;;;;;;8.20;5.53;;;;;29.20;99111.00;;;;16544446;28;20224;-51
2022/10/30 13:34:47;;;;;;;10.37;5.97;;;;;29.10;99111.00;;;;16552717;28;20191;-51
2022/10/30 13:42:57;;;;;;;10.00;6.70;;;;;29.30;99114.00;;;;16539827;28;20334;-51
2022/10/30 13:51:14;;;;;;;9.47;6.67;;;;;29.70;99120.00;;;;16552905;28;20227;-51
2022/10/30 13:59:44;;;;;;;11.43;8.63;;;;;26.70;99129.00;;;;16545473;28;20224;-50
2022/10/30 14:07:53;;;;;;;7.57;6.57;;;;;28.20;99124.00;;;;16529855;28;20231;-50
2022/10/30 14:16:00;;;;;;;9.40;7.30;;;;;27.70;99113.00;;;;16539894;28;20229;-50
2022/10/30 14:24:05;;;;;;;10.20;7.60;;;;;25.50;99127.00;;;;16574696;28;20245;-50
2022/10/30 14:32:34;;;;;;;9.67;7.10;;;;;25.80;99123.00;;;;16542588;28;20222;-50
2022/10/30 14:40:42;;;;;;;10.43;6.37;;;;;24.50;99129.00;;;;16569211;28;20285;-50
2022/10/30 14:48:48;;;;;;;13.07;7.40;;;;;24.30;99132.00;;;;16551255;28;20325;-50
2022/10/30 14:56:52;;;;;;;8.43;7.37;;;;;23.90;99140.00;;;;16557777;28;20226;-50
2022/10/30 15:05:17;;;;;;;11.33;9.70;;;;;23.90;99146.00;;;;16547505;28;20707;-50
2022/10/30 15:13:22;;;;;;;11.47;8.80;;;;;23.30;99148.00;;;;16548925;28;20214;-50
2022/10/30 15:21:28;;;;;;;11.40;9.17;;;;;22.10;99147.00;;;;16570491;28;20234;-50
2022/10/30 15:29:35;;;;;;;10.00;7.60;;;;;21.80;99151.00;;;;16555692;28;20265;-49
2022/10/30 15:37:38;;;;;;;13.80;7.87;;;;;21.40;99162.00;;;;16568004;28;20252;-50
2022/10/30 15:45:43;;;;;;;17.27;13.77;;;;;21.30;99167.00;;;;16562937;28;20229;-50
2022/10/30 15:53:49;;;;;;;28.57;17.27;;;;;21.00;99160.00;;;;16570588;28;20203;-49
2022/10/30 16:01:55;;;;;;;13.47;10.40;;;;;20.90;99163.00;;;;16572471;28;20226;-50
2022/10/30 16:10:00;;;;;;;13.97;9.43;;;;;20.70;99168.00;;;;16571265;28;20231;-50
2022/10/30 16:18:10;;;;;;;12.40;9.87;;;;;19.90;99171.00;;;;16565735;28;20246;-49
2022/10/30 16:26:25;;;;;;;10.70;8.50;;;;;19.90;99166.00;;;;16564281;28;20249;-49
2022/10/30 16:34:33;;;;;;;11.50;8.60;;;;;19.40;99174.00;;;;16552652;28;20290;-50
2022/10/30 16:42:36;;;;;;;21.70;12.20;;;;;19.10;99182.00;;;;16559302;28;20317;-50
2022/10/30 16:50:40;;;;;;;19.50;12.20;;;;;19.10;99194.00;;;;16558901;28;20722;-50
2022/10/30 16:58:42;;;;;;;18.33;10.00;;;;;18.80;99187.00;;;;16559507;28;20220;-50
2022/10/30 17:06:46;;;;;;;17.07;9.70;;;;;18.70;99202.00;;;;16565266;28;20226;-51
2022/10/30 17:14:51;;;;;;;11.87;8.17;;;;;18.60;99212.00;;;;16561427;28;20273;-50
2022/10/30 17:23:06;;;;;;;16.37;9.60;;;;;18.60;99217.00;;;;16560137;28;20203;-52
2022/10/30 17:31:23;;;;;;;21.40;11.87;;;;;18.80;99209.00;;;;16564643;28;20231;-50
2022/10/30 17:39:27;;;;;;;16.07;9.80;;;;;17.90;99220.00;;;;16553404;28;20227;-50
2022/10/30 17:47:29;;;;;;;10.60;8.60;;;;;18.20;99229.00;;;;16545670;28;20237;-50
2022/10/30 17:55:34;;;;;;;13.63;6.97;;;;;17.40;99235.00;;;;16555688;28;20223;-51
2022/10/30 18:03:36;;;;;;;17.37;9.93;;;;;17.70;99243.00;;;;16547559;28;20373;-51
2022/10/30 18:11:40;;;;;;;13.30;8.40;;;;;17.80;99248.00;;;;16550686;28;20316;-50
2022/10/30 18:19:43;;;;;;;14.30;9.00;;;;;17.30;99248.00;;;;16554378;28;20285;-51
2022/10/30 18:27:47;;;;;;;10.33;6.40;;;;;16.90;99267.00;;;;16557360;28;20233;-50
2022/10/30 18:35:49;;;;;;;9.63;8.60;;;;;17.00;99266.00;;;;16571934;28;20385;-50
2022/10/30 18:43:53;;;;;;;10.50;7.90;;;;;17.00;99269.00;;;;16548592;28;20211;-50
2022/10/30 18:51:55;;;;;;;8.77;6.30;;;;;17.90;99265.00;;;;16573095;28;20237;-51
2022/10/30 18:59:59;;;;;;;9.57;7.50;;;;;16.80;99290.00;;;;16565537;28;20220;-50
2022/10/30 19:08:03;;;;;;;12.10;7.67;;;;;16.10;99297.00;;;;16574923;28;20258;-50
2022/10/30 19:16:11;;;;;;;11.43;7.27;;;;;16.10;99298.00;;;;16563090;28;20869;-51
2022/10/30 19:24:16;;;;;;;15.77;8.93;;;;;16.60;99282.00;;;;16572525;28;20208;-51
2022/10/30 19:32:20;;;;;;;10.63;8.20;;;;;16.30;99289.00;;;;16553513;28;20323;-51
2022/10/30 19:40:27;;;;;;;11.37;7.70;;;;;16.50;99295.00;;;;16561728;28;20239;-50
2022/10/30 19:48:31;;;;;;;8.63;7.37;;;;;17.00;99284.00;;;;16552213;28;20228;-50
2022/10/30 19:56:33;;;;;;;8.47;7.53;;;;;16.40;99292.00;;;;16567047;28;20426;-50
2022/10/30 20:04:37;;;;;;;9.90;7.70;;;;;17.10;99296.00;;;;16561694;28;20574;-51
2022/10/30 20:12:39;;;;;;;11.93;10.10;;;;;17.00;99290.00;;;;16565320;28;20225;-50
2022/10/30 20:20:48;;;;;;;18.07;9.20;;;;;16.30;99311.00;;;;16562760;28;20229;-50
2022/10/30 20:28:50;;;;;;;12.43;8.40;;;;;16.60;99315.00;;;;16565342;28;20231;-50
2022/10/30 20:36:54;;;;;;;10.23;8.00;;;;;16.40;99324.00;;;;16562684;28;20230;-51
2022/10/30 20:44:57;;;;;;;11.27;9.27;;;;;15.40;99354.00;;;;16549053;28;20215;-50
2022/10/30 20:53:01;;;;;;;12.93;8.70;;;;;16.20;99361.00;;;;16565816;28;20195;-51
2022/10/30 21:01:03;;;;;;;11.87;9.47;;;;;15.70;99359.00;;;;16559232;28;20829;-50
2022/10/30 21:09:07;;;;;;;13.47;9.07;;;;;16.50;99353.00;;;;16564501;28;20220;-51
2022/10/30 21:17:10;;;;;;;11.70;7.83;;;;;15.60;99357.00;;;;16558077;28;20230;-53
2022/10/30 21:25:14;;;;;;;16.27;9.00;;;;;15.30;99352.00;;;;16566957;28;20257;-50
2022/10/30 21:33:16;;;;;;;12.37;8.70;;;;;16.20;99342.00;;;;16556758;28;20281;-51
2022/10/30 21:41:23;;;;;;;12.43;8.80;;;;;15.40;99348.00;;;;16555655;28;20220;-50
2022/10/30 21:49:26;;;;;;;12.57;8.60;;;;;15.70;99331.00;;;;16542104;28;20228;-51
2022/10/30 21:57:30;;;;;;;10.63;9.70;;;;;15.30;99337.00;;;;16547404;28;20215;-51
2022/10/30 22:05:33;;;;;;;13.20;9.13;;;;;16.20;99343.00;;;;16566702;28;20672;-50
2022/10/30 22:13:37;;;;;;;13.27;10.60;;;;;16.30;99342.00;;;;16570299;28;20215;-51
2022/10/30 22:21:40;;;;;;;9.40;8.40;;;;;15.20;99341.00;;;;16568776;28;20215;-51
2022/10/30 22:29:43;;;;;;;11.83;8.93;;;;;15.30;99349.00;;;;16563276;28;20229;-50
2022/10/30 22:37:47;;;;;;;10.77;7.80;;;;;16.00;99352.00;;;;16566932;28;20242;-51
2022/10/30 22:45:54;;;;;;;14.63;11.70;;;;;15.10;99356.00;;;;16567377;28;20235;-51
2022/10/30 22:53:58;;;;;;;27.83;16.60;;;;;15.00;99372.00;;;;16568231;28;20221;-50
2022/10/30 23:02:03;;;;;;;11.37;8.30;;;;;15.40;99360.00;;;;16566173;28;20354;-51
2022/10/30 23:10:06;;;;;;;18.60;11.47;;;;;15.70;99358.00;;;;16563415;28;20687;-50
2022/10/30 23:18:10;;;;;;;9.40;6.97;;;;;14.50;99357.00;;;;16556265;28;20293;-51
2022/10/30 23:26:14;;;;;;;10.23;7.80;;;;;15.50;99359.00;;;;16574261;28;20219;-50
2022/10/30 23:34:18;;;;;;;12.80;9.43;;;;;15.90;99357.00;;;;16560183;28;20229;-51
2022/10/30 23:42:21;;;;;;;10.00;8.23;;;;;16.10;99354.00;;;;16573182;28;20231;-50
2022/10/30 23:50:24;;;;;;;13.70;10.13;;;;;15.50;99354.00;;;;16575261;28;20235;-50
2022/10/30 23:58:27;;;;;;;11.40;7.30;;;;;15.00;99352.00;;;;16577393;28;20228;-50
